Time;durP1;ratioP1;P1;durP2;ratioP2;P2;SDS_P1;SDS_P2;PMS_P1;PMS_P2;Temp;Humidity;BMP_temperature;BMP_pressure;BME280_temperature;BME280_humidity;BME280_pressure;Samples;Min_cycle;Max_cycle;Signal;HPM_P1;HPM_P2
2020/12/16 00:01:02;;;;;;;304.58;35.50;;;8.90;97.30;;;;;;4853979;29;20039;-82
2020/12/16 00:03:29;;;;;;;244.43;35.45;;;8.80;97.30;;;;;;4883118;29;20037;-80
2020/12/16 00:05:56;;;;;;;147.27;32.10;;;8.80;97.30;;;;;;4896185;29;20507;-81
2020/12/16 00:08:22;;;;;;;157.30;29.52;;;8.80;97.30;;;;;;4865287;29;20048;-82
2020/12/16 00:10:49;;;;;;;209.40;32.22;;;8.80;97.30;;;;;;4892763;29;20063;-82
2020/12/16 00:13:16;;;;;;;419.40;40.13;;;8.70;97.30;;;;;;4894030;29;20047;-82
2020/12/16 00:15:44;;;;;;;162.13;28.65;;;8.80;97.30;;;;;;4881397;29;20049;-82
2020/12/16 00:18:11;;;;;;;217.57;34.05;;;8.70;97.20;;;;;;4846184;29;20088;-82
2020/12/16 00:20:37;;;;;;;331.58;34.85;;;8.70;97.30;;;;;;4907814;29;20051;-82
2020/12/16 00:23:04;;;;;;;322.85;40.25;;;8.60;97.20;;;;;;4879431;29;20043;-82
2020/12/16 00:25:30;;;;;;;144.43;31.35;;;8.60;97.20;;;;;;4886993;29;20056;-82
2020/12/16 00:27:57;;;;;;;386.55;38.72;;;8.60;97.20;;;;;;4872244;29;20032;-83
2020/12/16 00:30:23;;;;;;;370.88;39.10;;;8.60;97.30;;;;;;4862364;29;20052;-80
2020/12/16 00:32:50;;;;;;;330.67;36.80;;;8.60;97.20;;;;;;4910594;29;20056;-80
2020/12/16 00:35:17;;;;;;;412.52;39.88;;;8.50;97.20;;;;;;4833665;29;20516;-80
2020/12/16 00:37:44;;;;;;;223.55;30.77;;;8.60;97.20;;;;;;4894215;29;20044;-80
2020/12/16 00:40:12;;;;;;;96.15;25.23;;;8.50;97.20;;;;;;4867976;29;20060;-80
2020/12/16 00:42:39;;;;;;;229.60;30.23;;;8.50;97.20;;;;;;4832300;29;20053;-80
2020/12/16 00:45:07;;;;;;;188.07;28.90;;;8.50;97.30;;;;;;4877811;29;20943;-80
2020/12/16 00:47:37;;;;;;;220.80;31.45;;;8.50;97.20;;;;;;4846867;29;20060;-80
2020/12/16 00:50:06;;;;;;;195.18;30.80;;;8.50;97.20;;;;;;4858153;29;20040;-80
2020/12/16 00:52:33;;;;;;;104.28;25.27;;;8.40;97.20;;;;;;4876751;29;20044;-79
2020/12/16 00:55:01;;;;;;;143.32;28.05;;;8.50;97.20;;;;;;4866723;29;20040;-80
2020/12/16 00:57:28;;;;;;;266.08;31.10;;;8.50;97.20;;;;;;4870859;29;20075;-80
2020/12/16 00:59:55;;;;;;;158.50;27.90;;;8.50;97.20;;;;;;4831894;29;20071;-80
2020/12/16 01:02:22;;;;;;;159.13;27.77;;;8.50;97.20;;;;;;4846741;29;20044;-80
2020/12/16 01:04:48;;;;;;;412.67;36.33;;;8.50;97.30;;;;;;4866503;29;20067;-80
2020/12/16 01:07:15;;;;;;;217.32;31.25;;;8.50;97.20;;;;;;4873085;29;20041;-79
2020/12/16 01:09:41;;;;;;;249.80;31.83;;;8.50;97.20;;;;;;4878548;29;20403;-80
2020/12/16 01:12:08;;;;;;;162.00;28.70;;;8.50;97.20;;;;;;4848547;29;20092;-79
2020/12/16 01:14:37;;;;;;;132.77;25.58;;;8.50;97.20;;;;;;4866174;29;20063;-80
2020/12/16 01:17:04;;;;;;;145.65;27.20;;;8.50;97.30;;;;;;4858152;29;20048;-79
2020/12/16 01:19:34;;;;;;;252.43;31.75;;;8.50;97.20;;;;;;4887355;29;20056;-79
2020/12/16 01:22:01;;;;;;;320.33;36.13;;;8.40;97.20;;;;;;4862613;29;20036;-80
2020/12/16 01:24:28;;;;;;;210.32;28.60;;;8.40;97.20;;;;;;4848994;29;20067;-80
2020/12/16 01:26:58;;;;;;;278.52;32.63;;;8.50;97.20;;;;;;4840900;29;20036;-80
2020/12/16 01:29:24;;;;;;;397.77;40.75;;;8.40;97.20;;;;;;4880224;29;20044;-80
2020/12/16 01:31:52;;;;;;;342.73;35.97;;;8.40;97.10;;;;;;4848876;29;20036;-80
2020/12/16 01:34:29;;;;;;;306.65;36.08;;;8.40;97.20;;;;;;4861052;29;20056;-80
2020/12/16 01:37:02;;;;;;;133.30;28.27;;;8.40;97.20;;;;;;4871065;29;20052;-80
2020/12/16 01:39:30;;;;;;;106.38;24.70;;;8.40;97.20;;;;;;4860028;29;20495;-80
2020/12/16 01:41:58;;;;;;;322.08;34.35;;;8.40;97.30;;;;;;4855346;29;20047;-80
2020/12/16 01:44:29;;;;;;;251.10;32.08;;;8.40;97.20;;;;;;4893945;29;20052;-80
2020/12/16 01:47:02;;;;;;;144.57;28.27;;;8.40;97.20;;;;;;4904431;29;20424;-80
2020/12/16 01:49:44;;;;;;;;;;;8.40;97.20;;;;;;4883999;29;20392;-80
2020/12/16 01:52:18;;;;;;;175.02;26.65;;;8.30;97.10;;;;;;4887847;29;20101;-79
2020/12/16 01:54:54;;;;;;;201.82;26.83;;;8.30;97.20;;;;;;4889578;29;20382;-79
2020/12/16 01:57:24;;;;;;;194.70;29.08;;;8.40;97.20;;;;;;4886047;29;20055;-80
2020/12/16 02:00:00;;;;;;;55.88;22.08;;;8.30;97.20;;;;;;4868929;29;20055;-80
2020/12/16 02:02:49;;;;;;;122.30;28.38;;;8.30;97.20;;;;;;4905977;29;20049;-80
2020/12/16 02:05:25;;;;;;;290.33;33.47;;;8.30;97.20;;;;;;4881743;29;20515;-80
2020/12/16 02:07:58;;;;;;;175.55;29.17;;;8.30;97.20;;;;;;4868375;29;20060;-79
2020/12/16 02:10:27;;;;;;;220.73;29.88;;;8.30;97.20;;;;;;4857009;29;20040;-80
2020/12/16 02:12:54;;;;;;;301.15;34.28;;;8.30;97.20;;;;;;4863556;29;20044;-80
2020/12/16 02:15:20;;;;;;;152.18;30.08;;;8.30;97.20;;;;;;4855844;29;20427;-79
2020/12/16 02:17:49;;;;;;;151.15;31.23;;;8.30;97.20;;;;;;4850597;29;20084;-79
2020/12/16 02:20:16;;;;;;;411.27;41.22;;;8.20;97.10;;;;;;4857090;29;20045;-81
2020/12/16 02:22:54;;;;;;;71.05;28.08;;;8.20;97.10;;;;;;4851203;29;20060;-80
2020/12/16 02:25:24;;;;;;;375.67;40.83;;;8.20;97.10;;;;;;4895440;29;20060;-78
2020/12/16 02:28:02;;;;;;;201.27;33.95;;;8.10;97.00;;;;;;4863522;29;20043;-80
2020/12/16 02:30:33;;;;;;;421.73;40.50;;;8.10;97.10;;;;;;4833465;29;20048;-80
2020/12/16 02:33:32;;;;;;;364.70;37.95;;;8.10;97.20;;;;;;4866782;29;20513;-80
2020/12/16 02:36:28;;;;;;;71.63;21.63;;;8.10;97.10;;;;;;4845406;29;20587;-80
2020/12/16 02:39:03;;;;;;;264.67;28.85;;;8.10;97.20;;;;;;4859774;29;20036;-80
2020/12/16 02:41:38;;;;;;;482.25;48.17;;;8.10;97.20;;;;;;4860727;29;20040;-82
2020/12/16 02:44:06;;;;;;;136.23;33.60;;;8.10;97.20;;;;;;4892351;29;20493;-83
2020/12/16 02:46:41;;;;;;;531.60;50.67;;;8.10;97.10;;;;;;4850786;29;20049;-80
2020/12/16 02:49:07;;;;;;;404.00;42.83;;;8.00;97.00;;;;;;4853076;29;20047;-80
2020/12/16 02:51:34;;;;;;;496.52;51.78;;;8.00;97.10;;;;;;4877014;29;20043;-81
2020/12/16 02:54:01;;;;;;;427.83;43.13;;;7.90;97.10;;;;;;4848122;29;20036;-81
2020/12/16 02:56:45;;;;;;;574.67;57.88;;;7.90;97.10;;;;;;4861711;29;20043;-80
2020/12/16 02:59:12;;;;;;;415.45;42.63;;;7.90;97.00;;;;;;4878195;29;20048;-81
2020/12/16 03:01:51;;;;;;;476.63;44.72;;;7.90;97.10;;;;;;4873336;29;20051;-81
2020/12/16 03:04:36;;;;;;;544.90;48.75;;;7.80;97.10;;;;;;4893947;29;20468;-80
2020/12/16 03:07:12;;;;;;;271.48;36.55;;;7.80;97.10;;;;;;4850178;29;20047;-80
2020/12/16 03:09:41;;;;;;;266.08;35.92;;;7.80;97.10;;;;;;4824138;29;20056;-81
2020/12/16 03:12:07;;;;;;;129.27;29.60;;;7.80;97.10;;;;;;4875564;29;20542;-80
2020/12/16 03:14:44;;;;;;;332.65;36.40;;;7.80;97.10;;;;;;4892069;29;20045;-81
2020/12/16 03:17:12;;;;;;;112.28;28.65;;;7.80;97.20;;;;;;4848941;29;20439;-81
2020/12/16 03:19:42;;;;;;;335.60;38.85;;;7.80;97.20;;;;;;4882972;29;20039;-81
2020/12/16 03:22:08;;;;;;;337.40;41.85;;;7.80;97.20;;;;;;4874520;29;20048;-81
2020/12/16 03:24:58;;;;;;;288.55;46.13;;;7.80;97.20;;;;;;4889822;29;20063;-81
2020/12/16 03:27:53;;;;;;;113.20;33.40;;;7.70;97.00;;;;;;4852604;29;20048;-81
2020/12/16 03:30:47;;;;;;;431.13;47.80;;;7.60;97.00;;;;;;4843552;29;20047;-81
2020/12/16 03:33:40;;;;;;;291.58;36.35;;;7.60;97.10;;;;;;4870723;29;20033;-81
2020/12/16 03:36:18;;;;;;;290.58;42.03;;;7.60;97.20;;;;;;4854693;29;20407;-81
2020/12/16 03:38:47;;;;;;;314.38;40.15;;;7.50;97.10;;;;;;4875956;29;20060;-81
2020/12/16 03:41:16;;;;;;;102.22;28.88;;;7.50;97.10;;;;;;4856964;29;20036;-81
2020/12/16 03:43:48;;;;;;;169.82;31.55;;;7.50;97.10;;;;;;4879054;29;20056;-81
2020/12/16 03:46:16;;;;;;;171.10;26.20;;;7.50;97.20;;;;;;4866615;29;20051;-81
2020/12/16 03:48:43;;;;;;;201.52;30.15;;;7.50;97.20;;;;;;4873692;29;20044;-82
2020/12/16 03:51:12;;;;;;;266.13;35.83;;;7.50;97.20;;;;;;4876809;29;20373;-81
2020/12/16 03:53:42;;;;;;;197.82;36.08;;;7.50;97.20;;;;;;4889529;29;20037;-81
2020/12/16 03:56:33;;;;;;;270.13;34.33;;;7.50;97.10;;;;;;4897157;29;20058;-81
2020/12/16 03:59:18;;;;;;;198.98;30.00;;;7.50;97.10;;;;;;4880880;29;20067;-81
2020/12/16 04:02:03;;;;;;;164.43;30.38;;;7.50;97.20;;;;;;4864613;29;20047;-81
2020/12/16 04:04:32;;;;;;;129.05;27.77;;;7.40;97.10;;;;;;4846272;29;20427;-81
2020/12/16 04:07:05;;;;;;;254.15;30.95;;;7.40;97.10;;;;;;4871118;29;20048;-81
2020/12/16 04:09:37;;;;;;;251.43;33.45;;;7.40;97.20;;;;;;4849749;29;20037;-81
2020/12/16 04:12:05;;;;;;;198.18;29.85;;;7.40;97.10;;;;;;4878946;29;20036;-81
2020/12/16 04:14:35;;;;;;;162.50;30.30;;;7.40;97.10;;;;;;4862156;29;20502;-81
2020/12/16 04:17:04;;;;;;;87.80;23.55;;;7.40;97.20;;;;;;4871744;29;20056;-81
2020/12/16 04:19:48;;;;;;;83.47;22.42;;;7.40;97.20;;;;;;4861536;29;20051;-81
2020/12/16 04:22:15;;;;;;;208.15;27.92;;;7.40;97.20;;;;;;4860660;29;20046;-80
2020/12/16 04:24:41;;;;;;;198.40;32.20;;;7.40;97.20;;;;;;4874535;29;20407;-82
2020/12/16 04:27:12;;;;;;;121.32;26.88;;;7.40;97.10;;;;;;4875114;29;20062;-82
2020/12/16 04:29:40;;;;;;;282.90;33.20;;;7.40;97.20;;;;;;4850185;29;20044;-82
2020/12/16 04:32:10;;;;;;;220.07;35.55;;;7.40;97.20;;;;;;4879554;29;20223;-81
2020/12/16 04:34:42;;;;;;;376.45;43.20;;;7.30;97.10;;;;;;4848488;29;20500;-81
2020/12/16 04:37:09;;;;;;;126.07;26.42;;;7.30;97.10;;;;;;4895597;29;20036;-81
2020/12/16 04:39:40;;;;;;;296.67;38.60;;;7.30;97.10;;;;;;4862509;29;20522;-81
2020/12/16 04:42:09;;;;;;;204.43;34.90;;;7.30;97.10;;;;;;4880627;29;20040;-81
2020/12/16 04:44:37;;;;;;;256.63;35.47;;;7.30;97.10;;;;;;4858822;29;20044;-81
2020/12/16 04:47:09;;;;;;;81.13;25.70;;;7.30;97.20;;;;;;4876019;29;20048;-81
2020/12/16 04:49:42;;;;;;;158.70;28.70;;;7.30;97.20;;;;;;4894531;29;20292;-81
2020/12/16 04:52:10;;;;;;;122.68;28.65;;;7.30;97.20;;;;;;4863805;29;20563;-81
2020/12/16 04:55:00;;;;;;;255.50;33.88;;;7.40;97.20;;;;;;4876671;29;20051;-81
2020/12/16 04:57:32;;;;;;;301.08;37.03;;;7.40;97.20;;;;;;4893197;29;20045;-81
2020/12/16 04:59:59;;;;;;;204.82;29.60;;;7.40;97.20;;;;;;4861168;29;20392;-81
2020/12/16 05:02:58;;;;;;;197.38;34.25;;;7.30;97.20;;;;;;4866225;29;20052;-82
2020/12/16 05:05:43;;;;;;;182.60;42.50;;;7.40;97.20;;;;;;4888183;29;20052;-81
2020/12/16 05:08:17;;;;;;;127.10;33.55;;;7.40;97.10;;;;;;4899576;29;20044;-81
2020/12/16 05:10:47;;;;;;;60.58;27.90;;;7.30;97.10;;;;;;4874056;29;20761;-81
2020/12/16 05:13:19;;;;;;;125.93;36.40;;;7.30;97.10;;;;;;4898908;29;20049;-81
2020/12/16 05:15:48;;;;;;;104.60;31.23;;;7.30;97.10;;;;;;4898438;29;20449;-81
2020/12/16 05:18:25;;;;;;;70.13;27.08;;;7.30;97.20;;;;;;4872998;29;20090;-81
2020/12/16 05:20:57;;;;;;;155.30;37.10;;;7.30;97.20;;;;;;4873241;29;20043;-81
2020/12/16 05:23:29;;;;;;;69.55;27.63;;;7.30;97.20;;;;;;4889018;29;20173;-81
2020/12/16 05:26:01;;;;;;;121.82;35.88;;;7.30;97.30;;;;;;4881294;29;20055;-80
2020/12/16 05:28:29;;;;;;;97.85;33.95;;;7.30;97.30;;;;;;4882057;29;20047;-81
2020/12/16 05:30:57;;;;;;;86.90;35.13;;;7.30;97.30;;;;;;4866639;29;20047;-81
2020/12/16 05:33:24;;;;;;;81.38;33.85;;;7.30;97.30;;;;;;4883365;29;20036;-81
2020/12/16 05:35:55;;;;;;;96.10;37.33;;;7.30;97.60;;;;;;4884608;29;20814;-81
2020/12/16 05:38:22;;;;;;;88.90;36.83;;;7.30;97.30;;;;;;4884767;29;20447;-81
2020/12/16 05:40:49;;;;;;;69.93;31.08;;;7.30;97.30;;;;;;4863173;29;20045;-81
2020/12/16 05:43:25;;;;;;;55.47;28.17;;;7.30;97.40;;;;;;4895341;29;20053;-81
2020/12/16 05:45:52;;;;;;;71.85;30.13;;;7.40;97.40;;;;;;4898076;29;20048;-81
2020/12/16 05:48:18;;;;;;;53.17;25.13;;;7.40;97.40;;;;;;4867728;29;20037;-81
2020/12/16 05:50:53;;;;;;;65.32;31.55;;;7.40;97.40;;;;;;4874005;29;20045;-81
2020/12/16 05:53:22;;;;;;;71.55;35.95;;;7.40;97.40;;;;;;4869668;29;20049;-81
2020/12/16 05:55:54;;;;;;;39.35;22.50;;;7.40;97.30;;;;;;4877759;29;20056;-81
2020/12/16 05:58:22;;;;;;;45.92;25.05;;;7.40;97.30;;;;;;4891144;29;20064;-81
2020/12/16 06:00:58;;;;;;;53.72;29.08;;;7.40;97.20;;;;;;4879212;29;20041;-81
2020/12/16 06:03:25;;;;;;;38.30;22.23;;;7.20;97.20;;;;;;4879705;29;20062;-81
2020/12/16 06:06:03;;;;;;;51.85;27.38;;;7.20;97.20;;;;;;4890291;29;20048;-81
2020/12/16 06:08:34;;;;;;;45.92;26.23;;;7.10;97.30;;;;;;4896392;29;20040;-81
2020/12/16 06:11:03;;;;;;;82.63;40.50;;;7.00;97.30;;;;;;4873892;29;20036;-81
2020/12/16 06:13:29;;;;;;;52.78;28.90;;;6.90;97.40;;;;;;4898763;29;20488;-81
2020/12/16 06:16:00;;;;;;;64.97;29.15;;;6.90;97.50;;;;;;4891060;29;20092;-81
2020/12/16 06:18:31;;;;;;;38.72;22.02;;;6.80;97.50;;;;;;4879358;29;20047;-81
2020/12/16 06:20:58;;;;;;;35.35;19.73;;;6.70;97.50;;;;;;4891517;29;20408;-81
2020/12/16 06:23:31;;;;;;;50.22;28.63;;;6.70;97.50;;;;;;4907242;29;20059;-81
2020/12/16 06:25:58;;;;;;;;;;;6.60;97.50;;;;;;4894684;29;20037;-81
2020/12/16 06:28:25;;;;;;;47.88;25.77;;;6.60;97.50;;;;;;4896551;29;19919;-81
2020/12/16 06:30:59;;;;;;;36.83;23.00;;;6.50;97.50;;;;;;4877884;29;20052;-81
2020/12/16 06:33:42;;;;;;;46.78;25.98;;;6.50;97.60;;;;;;4879369;29;20559;-81
2020/12/16 06:36:10;;;;;;;;;;;6.40;97.60;;;;;;4891961;29;20047;-81
2020/12/16 06:38:41;;;;;;;34.85;21.00;;;6.40;97.60;;;;;;4879597;29;19920;-81
2020/12/16 06:41:23;;;;;;;47.27;27.43;;;6.40;97.60;;;;;;4876885;29;20077;-81
2020/12/16 06:43:51;;;;;;;39.95;21.52;;;6.30;97.60;;;;;;4895218;29;20799;-80
2020/12/16 06:46:30;;;;;;;30.42;17.90;;;6.30;97.60;;;;;;4861469;29;20049;-81
2020/12/16 06:48:58;;;;;;;41.70;23.95;;;6.20;97.60;;;;;;4873185;29;20043;-81
2020/12/16 06:51:27;;;;;;;35.17;23.02;;;6.20;97.60;;;;;;4881855;29;20033;-81
2020/12/16 06:54:05;;;;;;;32.38;20.50;;;6.10;97.60;;;;;;4881012;29;20464;-81
2020/12/16 06:56:32;;;;;;;37.55;23.88;;;6.10;97.90;;;;;;4892535;29;20518;-81
2020/12/16 06:58:59;;;;;;;33.30;19.90;;;6.10;97.70;;;;;;4889305;29;20448;-81
2020/12/16 07:01:26;;;;;;;31.10;20.08;;;6.10;97.70;;;;;;4865235;29;20534;-81
2020/12/16 07:03:53;;;;;;;46.58;25.20;;;6.10;97.70;;;;;;4861799;29;20040;-81
2020/12/16 07:06:28;;;;;;;36.55;21.55;;;6.00;97.70;;;;;;4865228;29;20499;-81
2020/12/16 07:09:22;;;;;;;40.72;25.67;;;6.00;97.70;;;;;;4873794;29;20032;-81
2020/12/16 07:11:55;;;;;;;;;;;6.00;97.70;;;;;;4875883;29;20048;-80
2020/12/16 07:14:27;;;;;;;37.92;23.48;;;5.90;97.70;;;;;;4909224;29;19915;-82
2020/12/16 07:17:05;;;;;;;40.22;24.17;;;5.90;97.90;;;;;;4867229;29;20458;-83
2020/12/16 07:19:32;;;;;;;31.15;20.02;;;5.90;98.00;;;;;;4877818;29;20484;-82
2020/12/16 07:22:22;;;;;;;31.20;18.98;;;5.90;97.70;;;;;;4875579;29;20040;-82
2020/12/16 07:24:50;;;;;;;37.83;24.73;;;5.80;97.70;;;;;;4874930;29;20056;-81
2020/12/16 07:27:24;;;;;;;39.08;24.52;;;5.80;97.70;;;;;;4864712;29;20480;-81
2020/12/16 07:29:53;;;;;;;26.85;18.50;;;5.80;97.80;;;;;;4891189;29;20405;-83
2020/12/16 07:32:22;;;;;;;22.38;15.32;;;5.80;97.80;;;;;;4869975;29;20484;-81
2020/12/16 07:34:51;;;;;;;35.50;21.55;;;5.70;97.70;;;;;;4849284;29;20040;-83
2020/12/16 07:37:24;;;;;;;33.20;18.13;;;5.70;97.80;;;;;;4872522;29;20060;-83
2020/12/16 07:40:10;;;;;;;32.47;19.88;;;5.70;97.80;;;;;;4872433;29;20298;-83
2020/12/16 07:42:39;;;;;;;33.85;19.65;;;5.70;97.80;;;;;;4876612;29;20488;-83
2020/12/16 07:45:09;;;;;;;41.83;22.58;;;5.70;97.80;;;;;;4816058;29;20043;-83
2020/12/16 07:47:37;;;;;;;38.15;21.25;;;5.70;97.80;;;;;;4845866;29;20040;-83
2020/12/16 07:50:09;;;;;;;81.55;35.28;;;5.70;97.90;;;;;;4828901;29;20040;-83
2020/12/16 07:52:35;;;;;;;38.20;24.20;;;5.70;97.90;;;;;;4877243;29;20041;-83
2020/12/16 07:55:02;;;;;;;25.17;17.60;;;5.70;97.90;;;;;;4846906;29;20057;-83
2020/12/16 07:57:37;;;;;;;33.05;21.10;;;5.70;97.90;;;;;;4861260;29;20040;-83
2020/12/16 08:00:04;;;;;;;30.73;19.20;;;5.70;97.90;;;;;;4884080;29;20190;-83
2020/12/16 08:02:44;;;;;;;40.45;23.38;;;5.70;97.90;;;;;;4892145;29;20045;-83
2020/12/16 08:05:14;;;;;;;35.65;20.48;;;5.70;97.90;;;;;;4846948;29;20450;-83
2020/12/16 08:07:40;;;;;;;41.17;24.83;;;5.70;97.90;;;;;;4879297;29;20043;-83
2020/12/16 08:10:07;;;;;;;46.75;24.77;;;5.70;97.90;;;;;;4873177;29;20047;-83
2020/12/16 08:12:40;;;;;;;44.08;22.23;;;5.70;98.00;;;;;;4847804;29;20427;-83
2020/12/16 08:15:16;;;;;;;49.08;22.95;;;5.70;98.00;;;;;;4891358;29;20036;-82
2020/12/16 08:17:45;;;;;;;54.20;26.52;;;5.70;98.00;;;;;;4860864;29;20052;-83
2020/12/16 08:20:14;;;;;;;52.10;28.53;;;5.80;98.00;;;;;;4892098;29;20045;-82
2020/12/16 08:22:42;;;;;;;33.42;20.75;;;5.80;98.00;;;;;;4873891;29;20037;-82
2020/12/16 08:25:10;;;;;;;38.67;21.10;;;5.80;98.00;;;;;;4889492;29;20051;-83
2020/12/16 08:27:43;;;;;;;25.63;14.70;;;5.80;98.00;;;;;;4891773;29;20057;-83
2020/12/16 08:30:12;;;;;;;42.35;22.27;;;5.80;98.00;;;;;;4871129;29;20404;-82
2020/12/16 08:33:06;;;;;;;33.30;19.70;;;5.90;98.00;;;;;;4859237;29;20044;-83
2020/12/16 08:35:48;;;;;;;46.38;23.52;;;5.90;98.00;;;;;;4860799;29;20036;-81
2020/12/16 08:38:43;;;;;;;61.43;28.57;;;5.90;98.00;;;;;;4869909;29;20106;-79
2020/12/16 08:41:12;;;;;;;36.05;18.92;;;5.90;98.10;;;;;;4871575;29;20045;-83
2020/12/16 08:43:42;;;;;;;33.95;18.73;;;6.00;98.10;;;;;;4911600;29;20775;-82
2020/12/16 08:46:18;;;;;;;56.92;23.95;;;6.00;98.10;;;;;;4839046;29;20048;-82
2020/12/16 08:49:14;;;;;;;55.65;24.00;;;6.00;98.10;;;;;;4869622;29;20488;-82
2020/12/16 08:51:43;;;;;;;44.17;21.60;;;6.10;98.10;;;;;;4833388;29;20052;-82
2020/12/16 08:54:12;;;;;;;37.13;21.38;;;6.10;98.10;;;;;;4870713;29;20461;-81
2020/12/16 08:56:49;;;;;;;42.03;24.20;;;6.20;98.20;;;;;;4869656;29;20040;-81
2020/12/16 08:59:21;;;;;;;46.58;23.52;;;6.20;98.20;;;;;;4879791;29;20088;-82
2020/12/16 09:01:53;;;;;;;45.28;24.70;;;6.30;98.20;;;;;;4887938;29;20049;-82
2020/12/16 09:04:32;;;;;;;37.25;22.90;;;6.30;98.20;;;;;;4894359;29;20400;-82
2020/12/16 09:07:06;;;;;;;45.03;25.90;;;6.40;98.30;;;;;;4862323;29;20051;-82
2020/12/16 09:09:51;;;;;;;45.38;26.60;;;6.50;98.30;;;;;;4860914;29;20040;-82
2020/12/16 09:12:20;;;;;;;35.15;22.27;;;6.50;98.60;;;;;;4870099;29;20056;-82
2020/12/16 09:14:48;;;;;;;35.38;21.90;;;6.70;98.40;;;;;;4889758;29;20048;-82
2020/12/16 09:17:15;;;;;;;30.20;19.55;;;6.80;98.40;;;;;;4894352;29;20060;-77
2020/12/16 09:19:42;;;;;;;41.47;23.27;;;6.90;98.70;;;;;;4894276;29;20502;-79
2020/12/16 09:22:09;;;;;;;41.45;25.85;;;7.00;98.40;;;;;;4856011;29;20032;-81
2020/12/16 09:24:35;;;;;;;34.55;24.67;;;7.00;98.30;;;;;;4878184;29;20041;-80
2020/12/16 09:27:07;;;;;;;50.13;28.42;;;7.10;98.30;;;;;;4867518;29;20056;-79
2020/12/16 09:29:34;;;;;;;40.20;26.35;;;7.20;98.40;;;;;;4884384;29;20048;-79
2020/12/16 09:32:16;;;;;;;836.90;64.90;;;7.30;98.40;;;;;;4877218;29;20071;-79
2020/12/16 09:34:48;;;;;;;347.35;47.42;;;7.40;98.50;;;;;;4876306;29;20032;-79
2020/12/16 09:37:20;;;;;;;1551.47;103.00;;;7.50;98.50;;;;;;4874104;29;20041;-79
2020/12/16 09:39:48;;;;;;;1005.60;84.00;;;7.60;98.60;;;;;;4884865;29;20063;-78
2020/12/16 09:42:18;;;;;;;514.85;58.28;;;7.70;98.60;;;;;;4862946;29;20047;-78
2020/12/16 09:44:46;;;;;;;953.20;65.50;;;7.80;98.60;;;;;;4872054;29;20048;-78
2020/12/16 09:47:17;;;;;;;333.63;33.88;;;7.80;98.60;;;;;;4888680;29;20499;-79
2020/12/16 09:49:46;;;;;;;433.98;39.80;;;8.00;98.70;;;;;;4866764;29;20052;-79
2020/12/16 09:52:27;;;;;;;1999.90;103.38;;;8.20;98.90;;;;;;4893688;29;20134;-79
2020/12/16 09:54:53;;;;;;;684.13;43.50;;;8.40;99.00;;;;;;4881914;29;20036;-79
2020/12/16 09:57:21;;;;;;;1377.40;72.75;;;8.60;99.20;;;;;;4880225;29;20044;-78
2020/12/16 09:59:49;;;;;;;230.10;19.45;;;8.90;99.30;;;;;;4878199;29;20060;-77
2020/12/16 10:02:17;;;;;;;1999.90;161.15;;;9.20;99.30;;;;;;4894573;29;20487;-76
2020/12/16 10:04:44;;;;;;;1303.57;69.25;;;9.40;99.10;;;;;;4883461;29;20045;-76
2020/12/16 10:07:11;;;;;;;952.58;51.67;;;9.70;99.10;;;;;;4862094;29;20061;-78
2020/12/16 10:09:52;;;;;;;1999.90;114.10;;;9.90;98.70;;;;;;4847447;29;20048;-77
2020/12/16 10:12:20;;;;;;;320.88;22.48;;;10.10;98.50;;;;;;4864105;29;20052;-77
2020/12/16 10:14:47;;;;;;;9.80;7.25;;;10.40;98.40;;;;;;4865501;29;20041;-77
2020/12/16 10:17:13;;;;;;;353.55;25.60;;;10.60;98.00;;;;;;4858768;29;20424;-77
2020/12/16 10:19:40;;;;;;;55.58;12.05;;;10.80;97.90;;;;;;4855190;29;20065;-76
2020/12/16 10:22:06;;;;;;;112.18;13.70;;;10.90;97.80;;;;;;4894908;29;20395;-77
2020/12/16 10:24:33;;;;;;;10.57;7.53;;;11.00;97.70;;;;;;4882431;29;20032;-76
2020/12/16 10:27:02;;;;;;;10.63;8.93;;;11.00;97.40;;;;;;4846435;29;20040;-77
2020/12/16 10:29:28;;;;;;;11.02;8.38;;;10.90;97.10;;;;;;4878808;29;20044;-77
2020/12/16 10:31:55;;;;;;;10.52;8.85;;;10.80;97.00;;;;;;4895882;29;20059;-76
2020/12/16 10:34:22;;;;;;;13.73;8.98;;;10.70;97.10;;;;;;4883119;29;20033;-76
2020/12/16 10:36:50;;;;;;;12.18;9.38;;;10.60;97.00;;;;;;4861713;29;20048;-76
2020/12/16 10:39:18;;;;;;;14.73;10.73;;;10.40;96.90;;;;;;4888541;29;20044;-76
2020/12/16 10:41:49;;;;;;;12.27;10.10;;;10.30;96.90;;;;;;4870212;29;20057;-76
2020/12/16 10:44:16;;;;;;;13.77;10.85;;;10.20;97.00;;;;;;4881238;29;20054;-76
2020/12/16 10:46:48;;;;;;;14.45;12.82;;;10.10;97.10;;;;;;4846012;29;20040;-77
2020/12/16 10:49:15;;;;;;;16.30;12.80;;;10.10;97.10;;;;;;4860113;29;20404;-76
2020/12/16 10:51:43;;;;;;;16.73;12.32;;;10.00;97.10;;;;;;4851713;29;20051;-76
2020/12/16 10:54:10;;;;;;;16.77;11.05;;;9.90;97.00;;;;;;4867141;29;20052;-80
2020/12/16 10:56:36;;;;;;;11.90;9.20;;;9.80;97.00;;;;;;4889736;29;20601;-79
2020/12/16 10:59:03;;;;;;;11.75;9.38;;;9.80;97.10;;;;;;4884068;29;20060;-79
2020/12/16 11:01:34;;;;;;;16.58;12.75;;;9.70;97.20;;;;;;4841180;29;20406;-79
2020/12/16 11:04:01;;;;;;;15.20;12.57;;;9.60;97.00;;;;;;4888658;29;20496;-79
2020/12/16 11:06:28;;;;;;;15.15;11.45;;;9.60;97.00;;;;;;4842942;29;20519;-79
2020/12/16 11:08:55;;;;;;;11.60;10.15;;;9.50;97.00;;;;;;4894605;29;20487;-77
2020/12/16 11:11:21;;;;;;;16.70;13.45;;;9.40;97.10;;;;;;4860837;29;20059;-78
2020/12/16 11:13:49;;;;;;;17.45;12.77;;;9.30;97.10;;;;;;4883194;29;20055;-78
2020/12/16 11:16:15;;;;;;;17.80;12.70;;;9.30;97.10;;;;;;4843165;29;20048;-79
2020/12/16 11:18:42;;;;;;;17.77;13.45;;;9.20;97.10;;;;;;4845671;29;20041;-78
2020/12/16 11:21:09;;;;;;;16.83;14.18;;;9.20;97.10;;;;;;4846478;29;20451;-79
2020/12/16 11:23:35;;;;;;;17.38;13.55;;;9.20;97.00;;;;;;4822207;29;20489;-79
2020/12/16 11:26:04;;;;;;;16.73;14.20;;;9.20;96.90;;;;;;4868529;29;20047;-78
2020/12/16 11:28:30;;;;;;;18.67;15.63;;;9.20;96.90;;;;;;4883665;29;20508;-78
2020/12/16 11:30:57;;;;;;;27.27;18.55;;;9.10;96.90;;;;;;4826224;29;20041;-78
2020/12/16 11:33:23;;;;;;;20.10;15.70;;;9.20;96.90;;;;;;4889806;29;20401;-79
2020/12/16 11:35:50;;;;;;;22.60;17.52;;;9.10;96.90;;;;;;4857212;29;20519;-78
2020/12/16 11:38:16;;;;;;;17.70;14.40;;;9.20;97.00;;;;;;4841815;29;20056;-79
2020/12/16 11:40:43;;;;;;;16.35;13.60;;;9.20;97.00;;;;;;4825663;29;20070;-79
2020/12/16 11:43:09;;;;;;;23.08;16.05;;;9.20;97.00;;;;;;4874388;29;20037;-79
2020/12/16 11:45:36;;;;;;;23.48;18.20;;;9.20;97.00;;;;;;4850406;29;20052;-78
2020/12/16 11:48:02;;;;;;;20.02;15.57;;;9.30;96.90;;;;;;4863366;29;20051;-78
2020/12/16 11:50:29;;;;;;;19.38;15.63;;;9.30;96.90;;;;;;4842733;29;20044;-78
2020/12/16 11:52:55;;;;;;;19.38;14.70;;;9.30;96.80;;;;;;4877343;29;20796;-78
2020/12/16 11:55:22;;;;;;;21.00;16.98;;;9.30;96.80;;;;;;4875625;29;20041;-77
2020/12/16 11:57:48;;;;;;;19.42;15.40;;;9.30;96.80;;;;;;4857190;29;20377;-77
2020/12/16 12:00:14;;;;;;;21.98;17.27;;;9.30;96.60;;;;;;4864853;29;20060;-78
2020/12/16 12:02:59;;;;;;;21.55;17.98;;;9.30;96.60;;;;;;4822879;29;20056;-78
2020/12/16 12:05:26;;;;;;;21.60;17.58;;;9.40;96.50;;;;;;4849951;29;20474;-78
2020/12/16 12:07:52;;;;;;;24.10;18.67;;;9.40;96.40;;;;;;4858623;29;20043;-80
2020/12/16 12:10:19;;;;;;;20.55;16.85;;;9.50;96.30;;;;;;4859203;29;20048;-79
2020/12/16 12:12:45;;;;;;;20.48;15.93;;;9.50;96.30;;;;;;4880328;29;20044;-80
2020/12/16 12:15:12;;;;;;;19.80;16.77;;;9.50;96.20;;;;;;4861504;29;20481;-81
2020/12/16 12:17:39;;;;;;;23.95;19.17;;;9.50;96.20;;;;;;4844467;29;20075;-80
2020/12/16 12:20:05;;;;;;;23.98;17.75;;;9.50;96.10;;;;;;4873591;29;20500;-78
2020/12/16 12:22:32;;;;;;;20.13;16.15;;;9.50;96.10;;;;;;4874265;29;20041;-78
2020/12/16 12:24:59;;;;;;;21.30;16.50;;;9.50;96.00;;;;;;4831892;29;20064;-79
2020/12/16 12:27:26;;;;;;;22.45;17.90;;;9.40;95.90;;;;;;4833010;29;20044;-79
2020/12/16 12:29:52;;;;;;;20.05;16.23;;;9.40;95.80;;;;;;4873984;29;20049;-80
2020/12/16 12:32:19;;;;;;;22.08;17.35;;;9.40;95.90;;;;;;4873456;29;20056;-78
2020/12/16 12:34:45;;;;;;;22.75;17.92;;;9.40;95.90;;;;;;4872465;29;20036;-80
2020/12/16 12:37:12;;;;;;;19.17;16.05;;;9.40;95.90;;;;;;4875298;29;20060;-81
2020/12/16 12:39:38;;;;;;;19.65;15.70;;;9.50;96.00;;;;;;4843961;29;20041;-80
2020/12/16 12:42:05;;;;;;;22.30;16.98;;;9.50;96.00;;;;;;4859333;29;20539;-80
2020/12/16 12:44:31;;;;;;;18.83;15.45;;;9.60;96.00;;;;;;4845524;29;20484;-77
2020/12/16 12:47:00;;;;;;;17.30;13.27;;;9.70;96.00;;;;;;4875863;29;20032;-77
2020/12/16 12:49:27;;;;;;;22.23;16.95;;;9.70;95.90;;;;;;4884737;29;20048;-77
2020/12/16 12:51:54;;;;;;;19.38;15.88;;;9.80;95.80;;;;;;4851658;29;20048;-78